createdAt,value
2019-05-28T00:00:23.452Z,6.53
2019-05-28T00:02:59.107Z,7.20
2019-05-28T00:05:29.408Z,7.20
2019-05-28T00:07:59.711Z,7.42
2019-05-28T00:10:30.005Z,7.33
2019-05-28T00:13:00.328Z,7.15
2019-05-28T00:15:30.634Z,7.10
2019-05-28T00:18:03.167Z,7.00
2019-05-28T00:20:33.764Z,7.20
2019-05-28T00:23:14.625Z,7.37
2019-05-28T00:25:45.346Z,6.70
2019-05-28T00:28:15.687Z,6.10
2019-05-28T00:30:46.368Z,6.33
2019-05-28T00:33:18.060Z,6.80
2019-05-28T00:35:49.901Z,6.22
2019-05-28T00:38:23.414Z,6.55
2019-05-28T00:40:53.708Z,6.20
2019-05-28T00:43:25.509Z,5.97
2019-05-28T00:45:56.945Z,5.80
2019-05-28T00:48:27.849Z,5.70
2019-05-28T00:50:58.352Z,6.25
2019-05-28T00:53:28.841Z,6.30
2019-05-28T00:55:59.915Z,5.92
2019-05-28T00:58:32.024Z,5.90
2019-05-28T01:01:07.051Z,6.17
2019-05-28T01:03:37.800Z,6.58
2019-05-28T01:06:08.124Z,7.45
2019-05-28T01:08:39.935Z,6.78
2019-05-28T01:11:10.247Z,6.33
2019-05-28T01:13:41.891Z,6.90
2019-05-28T01:16:12.198Z,6.87
2019-05-28T01:18:42.470Z,7.43
2019-05-28T01:21:12.789Z,6.45
2019-05-28T01:23:43.106Z,6.42
2019-05-28T01:26:13.406Z,6.40
2019-05-28T01:28:43.690Z,6.17
2019-05-28T01:31:14.044Z,6.08
2019-05-28T01:33:44.363Z,5.97
2019-05-28T01:36:14.709Z,5.80
2019-05-28T01:38:45.024Z,6.20
2019-05-28T01:41:15.308Z,6.05
2019-05-28T01:43:45.648Z,6.40
2019-05-28T01:46:15.977Z,5.35
2019-05-28T01:48:46.477Z,5.67
2019-05-28T01:51:17.242Z,5.45
2019-05-28T01:53:47.922Z,5.08
2019-05-28T01:56:20.516Z,4.87
2019-05-28T01:58:51.114Z,4.70
2019-05-28T02:01:21.487Z,5.03
2019-05-28T02:03:52.076Z,5.17
2019-05-28T02:06:22.397Z,5.22
2019-05-28T02:08:53.053Z,4.72
2019-05-28T02:11:25.131Z,4.60
2019-05-28T02:13:55.432Z,4.87
2019-05-28T02:16:25.794Z,4.28
2019-05-28T02:18:56.092Z,4.70
2019-05-28T02:21:28.224Z,4.45
2019-05-28T02:23:58.779Z,4.37
2019-05-28T02:26:29.300Z,4.20
2019-05-28T02:28:59.694Z,3.92
2019-05-28T02:31:29.921Z,3.98
2019-05-28T02:34:00.290Z,4.58
2019-05-28T02:36:32.119Z,4.05
2019-05-28T02:39:02.490Z,3.90
2019-05-28T02:41:34.165Z,3.92
2019-05-28T02:44:04.452Z,4.10
2019-05-28T02:46:35.152Z,3.77
2019-05-28T02:49:06.027Z,3.98
2019-05-28T02:51:36.650Z,3.90
2019-05-28T02:54:06.950Z,4.00
2019-05-28T02:56:39.383Z,4.25
2019-05-28T02:59:12.182Z,3.72
2019-05-28T03:01:45.038Z,3.67
2019-05-28T03:04:17.743Z,4.10
2019-05-28T03:06:50.768Z,3.85
2019-05-28T03:09:23.980Z,3.98
2019-05-28T03:11:54.608Z,3.90
2019-05-28T03:14:25.865Z,3.55
2019-05-28T03:16:59.398Z,4.00
2019-05-28T03:19:31.008Z,3.55
2019-05-28T03:22:04.020Z,3.37
2019-05-28T03:24:36.453Z,3.30
2019-05-28T03:27:06.739Z,3.33
2019-05-28T03:29:38.214Z,3.40
2019-05-28T03:32:09.573Z,3.90
2019-05-28T03:34:42.143Z,3.27
2019-05-28T03:37:13.274Z,3.37
2019-05-28T03:39:46.643Z,3.47
2019-05-28T03:42:18.842Z,3.60
2019-05-28T03:44:49.120Z,3.30
2019-05-28T03:47:19.407Z,3.40
2019-05-28T03:49:49.734Z,4.75
2019-05-28T03:52:22.871Z,3.90
2019-05-28T03:54:53.651Z,3.52
2019-05-28T03:57:23.949Z,3.40
2019-05-28T03:59:57.819Z,3.72
2019-05-28T04:02:29.381Z,3.30
2019-05-28T04:05:00.387Z,3.25
2019-05-28T04:07:33.703Z,3.25
2019-05-28T04:10:04.123Z,3.10
2019-05-28T04:12:35.006Z,3.17
2019-05-28T04:15:06.443Z,3.58
2019-05-28T04:17:36.792Z,3.55
2019-05-28T04:20:07.444Z,3.30
2019-05-28T04:22:37.746Z,3.40
2019-05-28T04:25:10.745Z,3.22
2019-05-28T04:27:41.028Z,3.47
2019-05-28T04:30:14.793Z,3.05
2019-05-28T04:32:45.078Z,2.83
2019-05-28T04:35:16.531Z,3.37
2019-05-28T04:37:50.135Z,3.33
2019-05-28T04:40:20.868Z,3.17
2019-05-28T04:42:51.714Z,3.05
2019-05-28T04:45:22.553Z,2.90
2019-05-28T04:47:53.335Z,2.95
2019-05-28T04:50:23.840Z,3.00
2019-05-28T04:52:57.895Z,3.12
2019-05-28T04:55:31.598Z,3.40
2019-05-28T04:58:01.952Z,3.40
2019-05-28T05:00:32.738Z,2.90
2019-05-28T05:03:04.502Z,2.80
2019-05-28T05:05:36.603Z,2.85
2019-05-28T05:08:07.034Z,2.87
2019-05-28T05:10:38.202Z,2.70
2019-05-28T05:13:09.323Z,2.72
2019-05-28T05:15:40.604Z,3.58
2019-05-28T05:18:10.861Z,2.50
2019-05-28T05:20:43.661Z,3.05
2019-05-28T05:23:17.449Z,2.70
2019-05-28T05:25:52.083Z,2.65
2019-05-28T05:28:22.394Z,3.10
2019-05-28T05:30:57.202Z,3.60
2019-05-28T05:33:28.835Z,3.22
2019-05-28T05:36:00.357Z,3.30
2019-05-28T05:38:30.695Z,2.98
2019-05-28T05:41:01.099Z,3.22
2019-05-28T05:43:31.912Z,3.87
2019-05-28T05:46:03.345Z,3.08
2019-05-28T05:48:34.182Z,3.27
2019-05-28T05:51:05.419Z,3.75
2019-05-28T05:53:35.988Z,3.55
2019-05-28T05:56:06.919Z,3.85
2019-05-28T05:58:37.576Z,3.42
2019-05-28T06:01:07.995Z,3.10
2019-05-28T06:03:41.896Z,3.55
2019-05-28T06:06:12.681Z,3.15
2019-05-28T06:08:43.021Z,3.27
2019-05-28T06:11:14.105Z,3.95
2019-05-28T06:13:44.522Z,3.60
2019-05-28T06:16:17.537Z,3.17
2019-05-28T06:18:47.969Z,3.60
2019-05-28T06:21:19.155Z,2.87
2019-05-28T06:23:49.690Z,2.62
2019-05-28T06:26:20.376Z,2.95
2019-05-28T06:28:50.647Z,2.95
2019-05-28T06:31:23.148Z,2.90
2019-05-28T06:33:57.309Z,2.50
2019-05-28T06:36:25.834Z,3.00
2019-05-28T06:38:56.230Z,2.70
2019-05-28T06:41:26.594Z,2.40
2019-05-28T06:43:57.025Z,2.47
2019-05-28T06:46:27.351Z,2.70
2019-05-28T06:48:57.957Z,2.15
2019-05-28T06:51:28.761Z,2.25
2019-05-28T06:53:59.079Z,2.95
2019-05-28T06:56:32.096Z,2.00
2019-05-28T06:59:03.752Z,2.45
2019-05-28T07:01:34.072Z,2.17
2019-05-28T07:04:13.759Z,2.15
2019-05-28T07:06:38.108Z,2.10
2019-05-28T07:09:08.492Z,1.98
2019-05-28T07:11:39.116Z,1.90
2019-05-28T07:14:11.510Z,1.85
2019-05-28T07:16:52.927Z,1.95
2019-05-28T07:19:24.237Z,1.90
2019-05-28T07:21:46.080Z,1.90
2019-05-28T07:24:16.405Z,1.90
2019-05-28T07:26:48.612Z,2.10
2019-05-28T07:29:19.235Z,2.37
2019-05-28T07:31:49.555Z,2.00
2019-05-28T07:34:30.396Z,2.20
2019-05-28T07:36:52.233Z,1.92
2019-05-28T07:39:22.710Z,1.82
2019-05-28T07:41:56.531Z,2.33
2019-05-28T07:44:26.931Z,2.17
2019-05-28T07:46:59.169Z,2.10
2019-05-28T07:49:32.003Z,2.17
2019-05-28T07:52:02.741Z,1.75
2019-05-28T07:54:33.071Z,1.70
2019-05-28T07:57:04.176Z,1.85
2019-05-28T07:59:34.812Z,2.02
2019-05-28T08:02:06.175Z,1.80
2019-05-28T08:04:46.754Z,2.00
2019-05-28T08:07:08.467Z,2.27
2019-05-28T08:09:38.795Z,1.90
2019-05-28T08:12:09.655Z,1.98
2019-05-28T08:14:40.014Z,1.57
2019-05-28T08:17:17.797Z,1.42
2019-05-28T08:19:48.305Z,1.50
2019-05-28T08:22:18.629Z,1.45
2019-05-28T08:24:54.816Z,1.52
2019-05-28T08:27:27.614Z,1.52
2019-05-28T08:29:57.945Z,1.85
2019-05-28T08:32:29.893Z,1.52
2019-05-28T08:35:05.897Z,1.70
2019-05-28T08:37:35.619Z,1.65
2019-05-28T08:40:06.423Z,1.75
2019-05-28T08:42:36.778Z,1.60
2019-05-28T08:45:07.907Z,1.42
2019-05-28T08:47:42.371Z,1.52
2019-05-28T08:50:31.023Z,1.80
2019-05-28T08:52:48.819Z,1.57
2019-05-28T08:55:19.186Z,1.57
2019-05-28T08:57:50.272Z,1.67
2019-05-28T09:00:39.632Z,2.15
2019-05-28T09:03:10.882Z,1.80
2019-05-28T09:05:42.040Z,1.50
2019-05-28T09:08:14.044Z,1.62
2019-05-28T09:10:45.759Z,1.60
2019-05-28T09:13:16.028Z,1.72
2019-05-28T09:15:46.348Z,1.42
2019-05-28T09:18:16.699Z,1.50
2019-05-28T09:20:48.704Z,1.42
2019-05-28T09:23:24.614Z,1.37
2019-05-28T09:25:55.270Z,1.35
2019-05-28T09:28:30.548Z,1.62
2019-05-28T09:31:02.043Z,1.72
2019-05-28T09:33:32.451Z,2.00
2019-05-28T09:36:08.798Z,1.42
2019-05-28T09:38:35.092Z,2.05
2019-05-28T09:41:06.090Z,1.70
2019-05-28T09:43:37.033Z,1.85
2019-05-28T09:46:08.865Z,1.87
2019-05-28T09:48:39.169Z,1.20
2019-05-28T09:51:09.468Z,1.25
2019-05-28T09:53:40.156Z,1.47
2019-05-28T09:56:10.459Z,1.52
2019-05-28T09:58:42.586Z,1.70
2019-05-28T10:01:12.822Z,1.55
2019-05-28T10:03:43.191Z,1.60
2019-05-28T10:06:17.315Z,1.72
2019-05-28T10:08:46.930Z,1.60
2019-05-28T10:11:17.247Z,1.57
2019-05-28T10:13:48.185Z,1.62
2019-05-28T10:16:18.668Z,1.47
2019-05-28T10:18:49.991Z,1.87
2019-05-28T10:21:20.591Z,1.52
2019-05-28T10:26:32.089Z,1.72
2019-05-28T10:29:02.449Z,1.82
2019-05-28T10:31:32.884Z,1.75
2019-05-28T10:34:03.309Z,2.27
2019-05-28T10:36:36.552Z,1.50
2019-05-28T10:39:07.828Z,1.90
2019-05-28T10:41:42.469Z,1.98
2019-05-28T10:44:12.844Z,1.75
2019-05-28T10:46:47.645Z,1.70
2019-05-28T10:49:17.918Z,1.98
2019-05-28T10:51:51.681Z,1.60
2019-05-28T10:54:24.157Z,1.30
2019-05-28T10:56:59.054Z,1.40
2019-05-28T10:59:29.699Z,1.42
2019-05-28T11:02:02.200Z,1.22
2019-05-28T11:04:34.698Z,1.22
2019-05-28T11:07:05.242Z,1.50
2019-05-28T11:09:35.556Z,1.42
2019-05-28T11:12:06.090Z,1.40
2019-05-28T11:14:38.626Z,1.40
2019-05-28T11:17:09.047Z,1.17
2019-05-28T11:19:39.350Z,1.52
2019-05-28T11:22:11.523Z,1.25
2019-05-28T11:24:41.828Z,1.30
2019-05-28T11:27:12.253Z,1.10
2019-05-28T11:29:42.830Z,1.00
2019-05-28T11:32:13.797Z,1.30
2019-05-28T11:34:44.579Z,1.17
2019-05-28T11:37:15.385Z,1.10
2019-05-28T11:39:47.167Z,1.25
2019-05-28T11:42:17.846Z,1.10
2019-05-28T11:44:48.153Z,1.50
2019-05-28T11:47:19.542Z,1.60
2019-05-28T11:49:51.582Z,1.05
2019-05-28T11:52:23.299Z,1.02
2019-05-28T11:54:55.277Z,1.50
2019-05-28T11:57:30.055Z,1.32
2019-05-28T12:00:03.404Z,1.42
2019-05-28T12:02:33.759Z,1.30
2019-05-28T12:05:04.578Z,1.20
2019-05-28T12:07:37.246Z,1.10
2019-05-28T12:10:08.522Z,1.12
2019-05-28T12:12:41.078Z,1.10
2019-05-28T12:15:14.261Z,1.00
2019-05-28T12:17:51.037Z,1.45
2019-05-28T12:20:23.298Z,1.30
2019-05-28T12:23:09.699Z,1.52
2019-05-28T12:25:29.067Z,1.50
2019-05-28T12:27:59.741Z,1.75
2019-05-28T12:30:33.011Z,1.60
2019-05-28T12:33:03.794Z,1.67
2019-05-28T12:35:34.671Z,1.22
2019-05-28T12:38:05.984Z,1.20
2019-05-28T12:40:46.903Z,1.12
2019-05-28T12:43:09.677Z,1.15
2019-05-28T12:45:42.159Z,1.50
2019-05-28T12:48:13.584Z,1.42
2019-05-28T12:50:45.780Z,1.00
2019-05-28T12:53:19.176Z,1.15
2019-05-28T12:55:49.437Z,1.37
2019-05-28T12:58:19.777Z,1.57
2019-05-28T13:00:50.107Z,1.45
2019-05-28T13:03:20.451Z,1.30
2019-05-28T13:05:50.799Z,1.65
2019-05-28T13:08:27.505Z,1.47
2019-05-28T13:10:57.798Z,2.10
2019-05-28T13:13:28.987Z,1.98
2019-05-28T13:15:59.324Z,1.90
2019-05-28T13:18:31.100Z,2.10
2019-05-28T13:21:03.554Z,1.98
2019-05-28T13:23:33.842Z,2.00
2019-05-28T13:26:04.233Z,1.82
2019-05-28T13:28:34.565Z,2.05
2019-05-28T13:31:07.504Z,1.80
2019-05-28T13:33:37.783Z,1.90
2019-05-28T13:36:08.541Z,1.90
2019-05-28T13:38:42.991Z,1.90
2019-05-28T13:41:14.000Z,1.75
2019-05-28T13:43:44.317Z,1.80
2019-05-28T13:46:14.483Z,1.72
2019-05-28T13:48:46.231Z,2.05
2019-05-28T13:51:18.016Z,1.77
2019-05-28T13:53:48.362Z,1.95
2019-05-28T13:56:19.136Z,1.75
2019-05-28T13:58:49.449Z,1.98
2019-05-28T14:01:20.038Z,2.00
2019-05-28T14:03:50.751Z,2.17
2019-05-28T14:06:21.444Z,2.10
2019-05-28T14:08:52.361Z,2.00
2019-05-28T14:11:23.743Z,2.00
2019-05-28T14:13:54.565Z,1.90
2019-05-28T14:16:27.392Z,2.10
2019-05-28T14:18:57.794Z,2.10
2019-05-28T14:21:30.475Z,1.80
2019-05-28T14:24:00.995Z,1.90
2019-05-28T14:26:31.654Z,2.00
2019-05-28T14:29:02.031Z,1.90
2019-05-28T14:31:35.785Z,1.92
2019-05-28T14:34:06.141Z,1.98
2019-05-28T14:36:38.184Z,1.70
2019-05-28T14:39:09.391Z,1.80
2019-05-28T14:41:39.714Z,2.00
2019-05-28T14:44:10.535Z,2.02
2019-05-28T14:46:41.936Z,1.92
2019-05-28T14:49:12.557Z,1.90
2019-05-28T14:51:42.871Z,1.62
2019-05-28T14:54:14.139Z,1.77
2019-05-28T14:56:50.160Z,1.90
2019-05-28T14:59:20.461Z,1.40
2019-05-28T15:01:52.625Z,1.60
2019-05-28T15:04:24.088Z,1.65
2019-05-28T15:06:57.171Z,1.40
2019-05-28T15:09:26.686Z,2.10
2019-05-28T15:11:58.625Z,2.80
2019-05-28T15:14:31.516Z,1.40
2019-05-28T15:17:04.118Z,1.50
2019-05-28T15:19:34.546Z,1.35
2019-05-28T15:22:07.965Z,1.52
2019-05-28T15:24:41.245Z,1.35
2019-05-28T15:27:11.851Z,1.77
2019-05-28T15:29:42.211Z,1.70
2019-05-28T15:32:12.766Z,1.60
2019-05-28T15:34:47.139Z,1.90
2019-05-28T15:37:19.782Z,1.57
2019-05-28T15:39:50.174Z,1.72
2019-05-28T15:42:32.904Z,1.70
2019-05-28T15:45:07.092Z,1.60
2019-05-28T15:47:37.389Z,1.95
2019-05-28T15:50:10.524Z,1.90
2019-05-28T15:52:40.829Z,1.90
2019-05-28T15:55:13.487Z,1.75
2019-05-28T15:57:44.290Z,1.90
2019-05-28T16:00:17.784Z,1.60
2019-05-28T16:02:49.582Z,1.72
2019-05-28T16:05:21.472Z,2.62
2019-05-28T16:07:53.365Z,1.98
2019-05-28T16:10:23.648Z,1.92
2019-05-28T16:12:57.258Z,2.20
2019-05-28T16:15:27.558Z,1.90
2019-05-28T16:17:58.272Z,1.75
2019-05-28T16:20:29.913Z,1.98
2019-05-28T16:23:02.834Z,1.75
2019-05-28T16:25:33.488Z,1.62
2019-05-28T16:28:06.010Z,2.60
2019-05-28T16:30:38.730Z,1.65
2019-05-28T16:33:09.765Z,2.30
2019-05-28T16:35:40.437Z,2.12
2019-05-28T16:38:15.109Z,1.80
2019-05-28T16:40:45.524Z,1.80
2019-05-28T16:43:17.585Z,2.00
2019-05-28T16:45:50.059Z,2.30
2019-05-28T16:48:20.397Z,1.77
2019-05-28T16:50:50.665Z,1.85
2019-05-28T16:53:24.026Z,1.85
2019-05-28T16:55:57.841Z,2.30
2019-05-28T16:58:37.096Z,2.10
2019-05-28T17:01:21.734Z,1.80
2019-05-28T17:03:41.152Z,2.00
2019-05-28T17:06:11.582Z,2.27
2019-05-28T17:08:42.110Z,1.87
2019-05-28T17:11:13.257Z,2.08
2019-05-28T17:13:48.080Z,2.00
2019-05-28T17:16:17.605Z,1.82
2019-05-28T17:18:47.924Z,1.92
2019-05-28T17:21:18.290Z,2.05
2019-05-28T17:23:50.332Z,1.70
2019-05-28T17:26:20.696Z,1.72
2019-05-28T17:28:51.053Z,1.75
2019-05-28T17:31:23.191Z,1.98
2019-05-28T17:33:55.326Z,1.85
2019-05-28T17:36:25.736Z,1.90
2019-05-28T17:38:56.066Z,2.15
2019-05-28T17:41:26.678Z,2.22
2019-05-28T17:43:57.295Z,2.20
2019-05-28T17:46:27.907Z,2.05
2019-05-28T17:49:01.679Z,1.98
2019-05-28T17:51:33.219Z,2.33
2019-05-28T17:54:13.830Z,2.10
2019-05-28T17:56:46.544Z,1.75
2019-05-28T17:59:17.402Z,2.30
2019-05-28T18:01:47.775Z,2.00
2019-05-28T18:04:24.942Z,2.22
2019-05-28T18:06:56.408Z,2.15
2019-05-28T18:09:26.659Z,2.60
2019-05-28T18:11:57.313Z,2.50
2019-05-28T18:14:29.486Z,2.70
2019-05-28T18:16:59.731Z,2.72
2019-05-28T18:19:30.049Z,2.58
2019-05-28T18:22:01.001Z,2.35
2019-05-28T18:24:34.089Z,2.25
2019-05-28T18:27:05.620Z,2.47
2019-05-28T18:29:38.863Z,2.50
2019-05-28T18:32:09.297Z,2.65
2019-05-28T18:34:39.776Z,2.45
2019-05-28T18:37:10.766Z,2.30
2019-05-28T18:39:42.290Z,2.35
2019-05-28T18:42:17.153Z,2.65
2019-05-28T18:44:47.665Z,2.37
2019-05-28T18:47:18.142Z,2.87
2019-05-28T18:49:48.460Z,2.77
2019-05-28T18:52:19.442Z,3.10
2019-05-28T18:54:50.786Z,2.60
2019-05-28T18:57:24.986Z,2.92
2019-05-28T18:59:55.462Z,2.98
2019-05-28T19:02:26.573Z,2.87
2019-05-28T19:05:02.899Z,2.65
2019-05-28T19:07:34.388Z,2.75
2019-05-28T19:10:04.986Z,3.05
2019-05-28T19:12:35.656Z,2.77
2019-05-28T19:15:06.957Z,3.20
2019-05-28T19:17:40.383Z,2.47
2019-05-28T19:20:11.189Z,2.95
2019-05-28T19:22:41.950Z,2.95
2019-05-28T19:25:12.616Z,2.83
2019-05-28T19:27:42.870Z,3.02
2019-05-28T19:30:13.573Z,2.72
2019-05-28T19:32:44.208Z,2.95
2019-05-28T19:35:21.902Z,2.70
2019-05-28T19:38:09.755Z,3.47
2019-05-28T19:40:41.329Z,3.15
2019-05-28T19:43:11.732Z,3.10
2019-05-28T19:45:52.589Z,3.00
2019-05-28T19:48:24.046Z,3.05
2019-05-28T19:53:59.440Z,3.42
2019-05-28T19:56:29.895Z,3.12
2019-05-28T19:59:01.697Z,3.72
2019-05-28T20:01:32.039Z,3.40
2019-05-28T20:04:03.616Z,3.17
2019-05-28T20:06:34.260Z,3.50
2019-05-28T20:09:08.404Z,3.33
2019-05-28T20:11:39.870Z,3.33
2019-05-28T20:14:10.251Z,3.58
2019-05-28T20:16:42.488Z,3.10
2019-05-28T20:19:12.763Z,3.95
2019-05-28T20:21:43.129Z,3.50
2019-05-28T20:24:13.430Z,3.42
2019-05-28T20:26:43.782Z,3.20
2019-05-28T20:29:14.083Z,3.35
2019-05-28T20:31:45.885Z,3.35
2019-05-28T20:34:16.466Z,3.30
2019-05-28T20:36:49.064Z,3.47
2019-05-28T20:39:20.444Z,3.00
2019-05-28T20:41:50.737Z,3.52
2019-05-28T20:44:21.068Z,3.08
2019-05-28T20:46:53.434Z,3.20
2019-05-28T20:49:23.748Z,2.72
2019-05-28T20:51:54.021Z,2.60
2019-05-28T20:54:24.295Z,4.12
2019-05-28T20:56:56.178Z,3.17
2019-05-28T20:59:26.666Z,3.10
2019-05-28T21:01:58.123Z,2.85
2019-05-28T21:04:28.739Z,3.30
2019-05-28T21:06:59.410Z,3.27
2019-05-28T21:09:29.825Z,3.70
2019-05-28T21:12:00.540Z,3.67
2019-05-28T21:14:30.965Z,3.40
2019-05-28T21:17:01.275Z,3.85
2019-05-28T21:19:34.490Z,3.52
2019-05-28T21:22:06.352Z,3.70
2019-05-28T21:24:36.937Z,3.67
2019-05-28T21:27:08.778Z,4.15
2019-05-28T21:29:39.135Z,3.67
2019-05-28T21:32:09.676Z,4.15
2019-05-28T21:34:40.315Z,4.30
2019-05-28T21:37:11.007Z,4.50
2019-05-28T21:39:44.175Z,4.33
2019-05-28T21:42:14.528Z,4.53
2019-05-28T21:44:52.011Z,4.62
2019-05-28T21:47:22.377Z,4.97
2019-05-28T21:49:52.738Z,4.83
2019-05-28T21:52:27.885Z,4.90
2019-05-28T21:54:59.226Z,4.45
2019-05-28T21:57:31.029Z,4.60
2019-05-28T22:00:04.314Z,4.70
2019-05-28T22:02:37.689Z,4.50
2019-05-28T22:05:09.690Z,5.08
2019-05-28T22:07:40.387Z,4.87
2019-05-28T22:10:11.077Z,4.92
2019-05-28T22:12:41.859Z,4.87
2019-05-28T22:15:12.893Z,5.37
2019-05-28T22:17:43.371Z,5.80
2019-05-28T22:20:14.066Z,5.83
2019-05-28T22:22:45.666Z,5.87
2019-05-28T22:25:21.088Z,4.90
2019-05-28T22:27:51.607Z,5.37
2019-05-28T22:30:25.964Z,5.30
2019-05-28T22:33:02.275Z,5.25
2019-05-28T22:35:33.537Z,4.60
2019-05-28T22:38:05.109Z,5.65
2019-05-28T22:40:37.594Z,6.30
2019-05-28T22:43:08.189Z,5.70
2019-05-28T22:45:42.771Z,5.60
2019-05-28T22:48:16.647Z,5.03
2019-05-28T22:50:46.041Z,5.25
2019-05-28T22:53:19.295Z,5.40
2019-05-28T22:55:49.770Z,6.53
2019-05-28T22:58:20.412Z,6.03
2019-05-28T23:00:51.346Z,6.40
2019-05-28T23:03:21.643Z,6.40
2019-05-28T23:05:53.399Z,6.45
2019-05-28T23:08:29.439Z,7.13
2019-05-28T23:10:59.771Z,6.40
2019-05-28T23:13:30.439Z,6.63
2019-05-28T23:16:02.553Z,6.25
2019-05-28T23:18:37.190Z,6.67
2019-05-28T23:21:11.093Z,6.13
2019-05-28T23:23:41.547Z,6.12
2019-05-28T23:26:11.838Z,5.75
2019-05-28T23:28:42.195Z,6.33
2019-05-28T23:31:12.551Z,5.87
2019-05-28T23:33:42.831Z,6.15
2019-05-28T23:36:13.509Z,6.28
2019-05-28T23:38:46.426Z,5.43
2019-05-28T23:41:16.737Z,5.60
2019-05-28T23:44:01.197Z,5.03
2019-05-28T23:46:19.818Z,4.55
2019-05-28T23:48:50.463Z,4.85
2019-05-28T23:51:20.929Z,4.53
2019-05-28T23:53:51.477Z,4.00
2019-05-28T23:56:22.328Z,4.17
2019-05-28T23:58:53.017Z,4.15
